Hlavní strana
METAR-TAF:

METAR-TAF

Letiště :

Letiště Tân Sơn Nhất

Ho Či Minovo Město, Vietnam

zeměpisná šířka: 10-49N, zeměpisná délka: 106-40E, výška: 19 m

Aktuální stav počasí

Zpráva byla vytvořena před 21 minutami, v 22:00 UTC
Severoseverovýchodní vítr 3 kt
Teplota 24°C
Vlhkost vzduchu 89%
Tlak 1012 hPa
Viditelnost: 8000 m
Skoro jasno ve výšce 1500 ft
Oblačno až skoro zataženo ve výšce 5000 ft

METAR: VVTS 132200Z 03003KT 8000 FEW015 BKN050 24/22 Q1012 NOSIG

Čas: 05:21 (22:21 UTC)

Předpověď počasí

Zpráva byla vytvořena před 5 hodinami a 21 minutami, v 17:00 UTC
Předpověď platná od 13 v 18 UTC do 14 v 24 UTC
Východoseverovýchodní vítr 5 kt
Viditelnost 10 km a více
Skoro jasno ve výšce 1700 ft
Změna
od 14 v 01 UTC do 14 v 02 UTC
Východní vítr 10 kt

TAF: VVTS 131700Z 1318/1424 06005KT 9999 FEW017 BECMG 1401/1402 09010KT

Stav a předpovědi počasí z více než 4 000 letišť (zprávy METAR a TAF).

Červené a žluté tečky na mapě představují dostupné meteorologické stanice.

Když kurzor umístíte na tečku, zobrazí se název stanice.

Pak kliknutím zobrazíte stav a předpověď počasí.

Chcete-li změnit mapu, kliknutím na zelené tlačítko se znaménkem +mapu přiblížíte, kliknutím na zelené tlačítko se znaménkem – mapu oddálíte a kliknutím na zelené šipky přejdete na sousední mapy.


METAR-TAF: